sensor_id;sensor_type;location;lat;lon;timestamp;P1;durP1;ratioP1;P2;durP2;ratioP2
46875;SDS011;32866;50.160;14.768;2023-11-25T00:00:24;1.60;;;1.60;;
46875;SDS011;32866;50.160;14.768;2023-11-25T00:02:55;1.90;;;1.90;;
46875;SDS011;32866;50.160;14.768;2023-11-25T00:05:22;1.70;;;1.70;;
46875;SDS011;32866;50.160;14.768;2023-11-25T00:07:48;1.50;;;1.50;;
46875;SDS011;32866;50.160;14.768;2023-11-25T00:10:14;1.55;;;1.55;;
46875;SDS011;32866;50.160;14.768;2023-11-25T00:12:40;1.77;;;1.77;;
46875;SDS011;32866;50.160;14.768;2023-11-25T00:15:06;1.70;;;1.70;;
46875;SDS011;32866;50.160;14.768;2023-11-25T00:17:33;1.60;;;1.60;;
46875;SDS011;32866;50.160;14.768;2023-11-25T00:19:59;1.70;;;1.70;;
46875;SDS011;32866;50.160;14.768;2023-11-25T00:24:51;1.90;;;1.90;;
46875;SDS011;32866;50.160;14.768;2023-11-25T00:27:20;1.90;;;1.90;;
46875;SDS011;32866;50.160;14.768;2023-11-25T00:29:46;2.00;;;1.98;;
46875;SDS011;32866;50.160;14.768;2023-11-25T00:32:13;1.87;;;1.87;;
46875;SDS011;32866;50.160;14.768;2023-11-25T00:34:39;3.00;;;2.90;;
46875;SDS011;32866;50.160;14.768;2023-11-25T00:37:07;2.92;;;2.67;;
46875;SDS011;32866;50.160;14.768;2023-11-25T00:39:33;1.90;;;1.90;;
46875;SDS011;32866;50.160;14.768;2023-11-25T00:41:59;2.47;;;2.38;;
46875;SDS011;32866;50.160;14.768;2023-11-25T00:44:26;2.15;;;2.08;;
46875;SDS011;32866;50.160;14.768;2023-11-25T00:46:52;2.65;;;2.55;;
46875;SDS011;32866;50.160;14.768;2023-11-25T00:49:18;2.72;;;2.63;;
46875;SDS011;32866;50.160;14.768;2023-11-25T00:51:45;3.70;;;3.53;;
46875;SDS011;32866;50.160;14.768;2023-11-25T00:54:11;3.30;;;3.20;;
46875;SDS011;32866;50.160;14.768;2023-11-25T00:59:03;2.90;;;2.80;;
46875;SDS011;32866;50.160;14.768;2023-11-25T01:01:29;2.88;;;2.78;;
46875;SDS011;32866;50.160;14.768;2023-11-25T01:03:55;3.25;;;3.15;;
46875;SDS011;32866;50.160;14.768;2023-11-25T01:06:21;4.57;;;4.37;;
46875;SDS011;32866;50.160;14.768;2023-11-25T01:08:47;6.20;;;5.97;;
46875;SDS011;32866;50.160;14.768;2023-11-25T01:11:15;7.25;;;6.95;;
46875;SDS011;32866;50.160;14.768;2023-11-25T01:13:42;7.80;;;7.50;;
46875;SDS011;32866;50.160;14.768;2023-11-25T01:16:14;7.68;;;7.38;;
46875;SDS011;32866;50.160;14.768;2023-11-25T01:18:42;7.57;;;7.27;;
46875;SDS011;32866;50.160;14.768;2023-11-25T01:21:08;7.90;;;7.60;;
46875;SDS011;32866;50.160;14.768;2023-11-25T01:23:35;7.67;;;7.37;;
46875;SDS011;32866;50.160;14.768;2023-11-25T01:28:27;5.33;;;5.13;;
46875;SDS011;32866;50.160;14.768;2023-11-25T01:30:55;5.93;;;5.73;;
46875;SDS011;32866;50.160;14.768;2023-11-25T01:33:21;5.35;;;5.15;;
46875;SDS011;32866;50.160;14.768;2023-11-25T01:35:47;4.55;;;4.35;;
46875;SDS011;32866;50.160;14.768;2023-11-25T01:38:13;5.60;;;5.40;;
46875;SDS011;32866;50.160;14.768;2023-11-25T01:40:39;4.78;;;4.57;;
46875;SDS011;32866;50.160;14.768;2023-11-25T01:43:06;5.85;;;5.65;;
46875;SDS011;32866;50.160;14.768;2023-11-25T01:45:33;8.63;;;8.30;;
46875;SDS011;32866;50.160;14.768;2023-11-25T01:47:59;8.77;;;8.38;;
46875;SDS011;32866;50.160;14.768;2023-11-25T01:50:28;7.33;;;7.03;;
46875;SDS011;32866;50.160;14.768;2023-11-25T01:53:01;7.07;;;6.77;;
46875;SDS011;32866;50.160;14.768;2023-11-25T01:55:28;7.33;;;7.03;;
46875;SDS011;32866;50.160;14.768;2023-11-25T01:57:58;8.97;;;8.47;;
46875;SDS011;32866;50.160;14.768;2023-11-25T02:00:25;6.93;;;6.63;;
46875;SDS011;32866;50.160;14.768;2023-11-25T02:02:51;6.80;;;6.50;;
46875;SDS011;32866;50.160;14.768;2023-11-25T02:05:17;7.63;;;7.32;;
46875;SDS011;32866;50.160;14.768;2023-11-25T02:07:43;7.10;;;6.80;;
46875;SDS011;32866;50.160;14.768;2023-11-25T02:10:09;6.30;;;6.07;;
46875;SDS011;32866;50.160;14.768;2023-11-25T02:12:36;7.23;;;6.93;;
46875;SDS011;32866;50.160;14.768;2023-11-25T02:15:05;6.13;;;5.93;;
46875;SDS011;32866;50.160;14.768;2023-11-25T02:17:36;8.00;;;7.70;;
46875;SDS011;32866;50.160;14.768;2023-11-25T02:20:06;7.73;;;7.43;;
46875;SDS011;32866;50.160;14.768;2023-11-25T02:22:34;6.27;;;6.03;;
46875;SDS011;32866;50.160;14.768;2023-11-25T02:25:03;8.47;;;8.17;;
46875;SDS011;32866;50.160;14.768;2023-11-25T02:27:30;7.23;;;6.93;;
46875;SDS011;32866;50.160;14.768;2023-11-25T02:29:56;8.05;;;7.75;;
46875;SDS011;32866;50.160;14.768;2023-11-25T02:32:22;7.38;;;7.07;;
46875;SDS011;32866;50.160;14.768;2023-11-25T02:34:48;7.10;;;6.80;;
46875;SDS011;32866;50.160;14.768;2023-11-25T02:37:14;8.45;;;8.15;;
46875;SDS011;32866;50.160;14.768;2023-11-25T02:39:42;7.60;;;7.30;;
46875;SDS011;32866;50.160;14.768;2023-11-25T02:42:08;8.23;;;7.90;;
46875;SDS011;32866;50.160;14.768;2023-11-25T02:44:35;7.17;;;6.87;;
46875;SDS011;32866;50.160;14.768;2023-11-25T02:47:04;7.30;;;7.00;;
46875;SDS011;32866;50.160;14.768;2023-11-25T02:49:30;7.37;;;7.07;;
46875;SDS011;32866;50.160;14.768;2023-11-25T02:51:56;7.50;;;7.20;;
46875;SDS011;32866;50.160;14.768;2023-11-25T02:54:24;6.20;;;6.00;;
46875;SDS011;32866;50.160;14.768;2023-11-25T02:56:50;5.20;;;5.00;;
46875;SDS011;32866;50.160;14.768;2023-11-25T02:59:16;6.55;;;6.30;;
46875;SDS011;32866;50.160;14.768;2023-11-25T03:01:46;7.33;;;7.03;;
46875;SDS011;32866;50.160;14.768;2023-11-25T03:04:18;9.73;;;8.87;;
46875;SDS011;32866;50.160;14.768;2023-11-25T03:06:45;8.73;;;8.43;;
46875;SDS011;32866;50.160;14.768;2023-11-25T03:09:12;8.23;;;7.93;;
46875;SDS011;32866;50.160;14.768;2023-11-25T03:11:39;8.13;;;7.83;;
46875;SDS011;32866;50.160;14.768;2023-11-25T03:14:05;7.63;;;7.33;;
46875;SDS011;32866;50.160;14.768;2023-11-25T03:16:32;7.45;;;7.15;;
46875;SDS011;32866;50.160;14.768;2023-11-25T03:18:59;8.70;;;8.13;;
46875;SDS011;32866;50.160;14.768;2023-11-25T03:21:26;7.17;;;6.87;;
46875;SDS011;32866;50.160;14.768;2023-11-25T03:26:18;5.27;;;5.07;;
46875;SDS011;32866;50.160;14.768;2023-11-25T03:28:44;5.85;;;5.65;;
46875;SDS011;32866;50.160;14.768;2023-11-25T03:31:10;5.00;;;4.80;;
46875;SDS011;32866;50.160;14.768;2023-11-25T03:33:38;5.47;;;5.27;;
46875;SDS011;32866;50.160;14.768;2023-11-25T03:36:04;5.07;;;4.88;;
46875;SDS011;32866;50.160;14.768;2023-11-25T03:38:30;5.33;;;5.13;;
46875;SDS011;32866;50.160;14.768;2023-11-25T03:40:56;4.22;;;4.03;;
46875;SDS011;32866;50.160;14.768;2023-11-25T03:43:23;4.10;;;3.90;;
46875;SDS011;32866;50.160;14.768;2023-11-25T03:48:16;3.35;;;3.25;;
46875;SDS011;32866;50.160;14.768;2023-11-25T03:50:42;3.20;;;3.10;;
46875;SDS011;32866;50.160;14.768;2023-11-25T03:53:09;4.10;;;3.90;;
46875;SDS011;32866;50.160;14.768;2023-11-25T03:55:34;3.60;;;3.50;;
46875;SDS011;32866;50.160;14.768;2023-11-25T03:58:01;3.20;;;3.10;;
46875;SDS011;32866;50.160;14.768;2023-11-25T04:00:28;3.10;;;3.00;;
46875;SDS011;32866;50.160;14.768;2023-11-25T04:02:54;2.80;;;2.70;;
46875;SDS011;32866;50.160;14.768;2023-11-25T04:05:20;2.97;;;2.88;;
46875;SDS011;32866;50.160;14.768;2023-11-25T04:07:48;2.90;;;2.80;;
46875;SDS011;32866;50.160;14.768;2023-11-25T04:10:14;2.40;;;2.30;;
46875;SDS011;32866;50.160;14.768;2023-11-25T04:12:41;3.20;;;3.10;;
46875;SDS011;32866;50.160;14.768;2023-11-25T04:15:11;3.00;;;2.90;;
46875;SDS011;32866;50.160;14.768;2023-11-25T04:17:38;2.70;;;2.60;;
46875;SDS011;32866;50.160;14.768;2023-11-25T04:20:06;2.63;;;2.53;;
46875;SDS011;32866;50.160;14.768;2023-11-25T04:22:42;2.17;;;2.07;;
46875;SDS011;32866;50.160;14.768;2023-11-25T04:25:09;2.90;;;2.80;;
46875;SDS011;32866;50.160;14.768;2023-11-25T04:27:40;3.10;;;3.00;;
46875;SDS011;32866;50.160;14.768;2023-11-25T04:30:12;2.63;;;2.53;;
46875;SDS011;32866;50.160;14.768;2023-11-25T04:32:40;2.77;;;2.67;;
46875;SDS011;32866;50.160;14.768;2023-11-25T04:35:08;3.00;;;2.90;;
46875;SDS011;32866;50.160;14.768;2023-11-25T04:40:00;2.63;;;2.53;;
46875;SDS011;32866;50.160;14.768;2023-11-25T04:42:30;2.80;;;2.70;;
46875;SDS011;32866;50.160;14.768;2023-11-25T04:44:56;2.93;;;2.83;;
46875;SDS011;32866;50.160;14.768;2023-11-25T04:47:22;2.88;;;2.78;;
46875;SDS011;32866;50.160;14.768;2023-11-25T04:49:48;3.30;;;3.20;;
46875;SDS011;32866;50.160;14.768;2023-11-25T04:52:14;2.85;;;2.75;;
46875;SDS011;32866;50.160;14.768;2023-11-25T04:54:41;3.00;;;2.90;;
46875;SDS011;32866;50.160;14.768;2023-11-25T04:57:07;3.00;;;2.90;;
46875;SDS011;32866;50.160;14.768;2023-11-25T04:59:34;2.70;;;2.60;;
46875;SDS011;32866;50.160;14.768;2023-11-25T05:02:01;3.00;;;2.90;;
46875;SDS011;32866;50.160;14.768;2023-11-25T05:04:27;3.17;;;3.08;;
46875;SDS011;32866;50.160;14.768;2023-11-25T05:06:53;2.92;;;2.83;;
46875;SDS011;32866;50.160;14.768;2023-11-25T05:09:19;3.15;;;3.05;;
46875;SDS011;32866;50.160;14.768;2023-11-25T05:11:45;3.15;;;3.05;;
46875;SDS011;32866;50.160;14.768;2023-11-25T05:14:11;3.05;;;2.95;;
46875;SDS011;32866;50.160;14.768;2023-11-25T05:16:37;4.05;;;3.72;;
46875;SDS011;32866;50.160;14.768;2023-11-25T05:19:03;2.70;;;2.60;;
46875;SDS011;32866;50.160;14.768;2023-11-25T05:24:01;2.70;;;2.60;;
46875;SDS011;32866;50.160;14.768;2023-11-25T05:26:29;2.83;;;2.73;;
46875;SDS011;32866;50.160;14.768;2023-11-25T05:28:55;2.83;;;2.72;;
46875;SDS011;32866;50.160;14.768;2023-11-25T05:33:48;2.78;;;2.67;;
46875;SDS011;32866;50.160;14.768;2023-11-25T05:36:15;3.10;;;3.00;;
46875;SDS011;32866;50.160;14.768;2023-11-25T05:38:41;3.80;;;3.60;;
46875;SDS011;32866;50.160;14.768;2023-11-25T05:41:07;4.10;;;3.90;;
46875;SDS011;32866;50.160;14.768;2023-11-25T05:43:36;4.53;;;4.33;;
46875;SDS011;32866;50.160;14.768;2023-11-25T05:46:02;3.75;;;3.65;;
46875;SDS011;32866;50.160;14.768;2023-11-25T05:48:28;3.65;;;3.55;;
46875;SDS011;32866;50.160;14.768;2023-11-25T05:50:54;3.45;;;3.35;;
46875;SDS011;32866;50.160;14.768;2023-11-25T05:53:20;3.15;;;3.05;;
46875;SDS011;32866;50.160;14.768;2023-11-25T05:55:46;3.28;;;3.17;;
46875;SDS011;32866;50.160;14.768;2023-11-25T05:58:12;3.50;;;3.40;;
46875;SDS011;32866;50.160;14.768;2023-11-25T06:00:38;3.43;;;3.33;;
46875;SDS011;32866;50.160;14.768;2023-11-25T06:03:05;3.30;;;3.20;;
46875;SDS011;32866;50.160;14.768;2023-11-25T06:05:31;2.95;;;2.85;;
46875;SDS011;32866;50.160;14.768;2023-11-25T06:07:57;3.40;;;3.30;;
46875;SDS011;32866;50.160;14.768;2023-11-25T06:10:23;3.25;;;3.15;;
46875;SDS011;32866;50.160;14.768;2023-11-25T06:12:49;3.03;;;2.92;;
46875;SDS011;32866;50.160;14.768;2023-11-25T06:15:16;3.13;;;3.03;;
46875;SDS011;32866;50.160;14.768;2023-11-25T06:17:44;3.40;;;3.30;;
46875;SDS011;32866;50.160;14.768;2023-11-25T06:20:11;3.27;;;3.17;;
46875;SDS011;32866;50.160;14.768;2023-11-25T06:25:03;3.78;;;3.58;;
46875;SDS011;32866;50.160;14.768;2023-11-25T06:27:31;3.67;;;3.57;;
46875;SDS011;32866;50.160;14.768;2023-11-25T06:29:57;4.22;;;4.03;;
46875;SDS011;32866;50.160;14.768;2023-11-25T06:32:23;3.23;;;3.13;;
46875;SDS011;32866;50.160;14.768;2023-11-25T06:34:52;4.40;;;4.20;;
46875;SDS011;32866;50.160;14.768;2023-11-25T06:37:23;4.40;;;4.20;;
46875;SDS011;32866;50.160;14.768;2023-11-25T06:39:49;4.27;;;4.07;;
46875;SDS011;32866;50.160;14.768;2023-11-25T06:42:15;3.97;;;3.80;;
46875;SDS011;32866;50.160;14.768;2023-11-25T06:44:42;4.13;;;3.93;;
46875;SDS011;32866;50.160;14.768;2023-11-25T06:47:09;3.40;;;3.30;;
46875;SDS011;32866;50.160;14.768;2023-11-25T06:49:36;3.83;;;3.73;;
46875;SDS011;32866;50.160;14.768;2023-11-25T06:52:02;3.97;;;3.80;;
46875;SDS011;32866;50.160;14.768;2023-11-25T06:54:29;4.10;;;3.90;;
46875;SDS011;32866;50.160;14.768;2023-11-25T06:56:56;3.60;;;3.50;;
46875;SDS011;32866;50.160;14.768;2023-11-25T06:59:22;3.63;;;3.53;;
46875;SDS011;32866;50.160;14.768;2023-11-25T07:01:48;4.18;;;3.97;;
46875;SDS011;32866;50.160;14.768;2023-11-25T07:04:19;3.90;;;3.80;;
46875;SDS011;32866;50.160;14.768;2023-11-25T07:06:45;3.72;;;3.63;;
46875;SDS011;32866;50.160;14.768;2023-11-25T07:09:11;3.92;;;3.80;;
46875;SDS011;32866;50.160;14.768;2023-11-25T07:11:39;4.13;;;3.93;;
46875;SDS011;32866;50.160;14.768;2023-11-25T07:14:06;4.13;;;3.97;;
46875;SDS011;32866;50.160;14.768;2023-11-25T07:16:32;4.47;;;4.27;;
46875;SDS011;32866;50.160;14.768;2023-11-25T07:18:59;3.43;;;3.33;;
46875;SDS011;32866;50.160;14.768;2023-11-25T07:21:26;3.87;;;3.73;;
46875;SDS011;32866;50.160;14.768;2023-11-25T07:26:18;4.30;;;4.10;;
46875;SDS011;32866;50.160;14.768;2023-11-25T07:28:44;4.00;;;3.72;;
46875;SDS011;32866;50.160;14.768;2023-11-25T07:31:10;4.35;;;4.15;;
46875;SDS011;32866;50.160;14.768;2023-11-25T07:36:02;3.20;;;3.10;;
46875;SDS011;32866;50.160;14.768;2023-11-25T07:38:28;3.78;;;3.67;;
46875;SDS011;32866;50.160;14.768;2023-11-25T07:40:54;3.00;;;2.90;;
46875;SDS011;32866;50.160;14.768;2023-11-25T07:43:21;3.33;;;3.20;;
46875;SDS011;32866;50.160;14.768;2023-11-25T07:45:50;3.27;;;3.17;;
46875;SDS011;32866;50.160;14.768;2023-11-25T07:48:16;2.70;;;2.60;;
46875;SDS011;32866;50.160;14.768;2023-11-25T07:53:11;2.50;;;2.40;;
46875;SDS011;32866;50.160;14.768;2023-11-25T07:55:39;3.23;;;3.13;;
46875;SDS011;32866;50.160;14.768;2023-11-25T07:58:05;3.40;;;3.30;;
46875;SDS011;32866;50.160;14.768;2023-11-25T08:00:33;4.00;;;3.83;;
46875;SDS011;32866;50.160;14.768;2023-11-25T08:02:59;2.88;;;2.78;;
46875;SDS011;32866;50.160;14.768;2023-11-25T08:05:25;3.08;;;2.97;;
46875;SDS011;32866;50.160;14.768;2023-11-25T08:07:51;2.88;;;2.78;;
46875;SDS011;32866;50.160;14.768;2023-11-25T08:10:19;2.40;;;2.30;;
46875;SDS011;32866;50.160;14.768;2023-11-25T08:12:45;3.07;;;2.97;;
46875;SDS011;32866;50.160;14.768;2023-11-25T08:15:12;2.23;;;2.13;;
46875;SDS011;32866;50.160;14.768;2023-11-25T08:17:42;2.30;;;2.20;;
46875;SDS011;32866;50.160;14.768;2023-11-25T08:20:09;2.30;;;2.20;;
46875;SDS011;32866;50.160;14.768;2023-11-25T08:22:36;1.93;;;1.93;;
46875;SDS011;32866;50.160;14.768;2023-11-25T08:25:05;3.07;;;2.97;;
46875;SDS011;32866;50.160;14.768;2023-11-25T08:27:34;2.00;;;1.97;;
46875;SDS011;32866;50.160;14.768;2023-11-25T08:30:00;2.00;;;2.00;;
46875;SDS011;32866;50.160;14.768;2023-11-25T08:32:26;2.40;;;2.30;;
46875;SDS011;32866;50.160;14.768;2023-11-25T08:34:52;2.80;;;2.60;;
46875;SDS011;32866;50.160;14.768;2023-11-25T08:39:49;2.43;;;2.33;;
46875;SDS011;32866;50.160;14.768;2023-11-25T08:42:15;3.03;;;2.83;;
46875;SDS011;32866;50.160;14.768;2023-11-25T08:44:41;2.28;;;2.17;;
46875;SDS011;32866;50.160;14.768;2023-11-25T08:47:11;2.07;;;1.97;;
46875;SDS011;32866;50.160;14.768;2023-11-25T08:49:37;2.08;;;2.00;;
46875;SDS011;32866;50.160;14.768;2023-11-25T08:52:03;2.75;;;2.53;;
46875;SDS011;32866;50.160;14.768;2023-11-25T08:54:29;2.42;;;2.33;;
46875;SDS011;32866;50.160;14.768;2023-11-25T08:57:02;1.87;;;1.87;;
46875;SDS011;32866;50.160;14.768;2023-11-25T08:59:29;2.43;;;2.33;;
46875;SDS011;32866;50.160;14.768;2023-11-25T09:01:57;2.33;;;2.23;;
46875;SDS011;32866;50.160;14.768;2023-11-25T09:04:23;1.60;;;1.60;;
46875;SDS011;32866;50.160;14.768;2023-11-25T09:06:51;1.60;;;1.60;;
46875;SDS011;32866;50.160;14.768;2023-11-25T09:09:18;2.15;;;2.08;;
46875;SDS011;32866;50.160;14.768;2023-11-25T09:11:46;1.70;;;1.70;;
46875;SDS011;32866;50.160;14.768;2023-11-25T09:14:15;1.93;;;1.87;;
46875;SDS011;32866;50.160;14.768;2023-11-25T09:16:42;1.60;;;1.60;;
46875;SDS011;32866;50.160;14.768;2023-11-25T09:19:09;1.87;;;1.87;;
46875;SDS011;32866;50.160;14.768;2023-11-25T09:21:35;1.90;;;1.80;;
46875;SDS011;32866;50.160;14.768;2023-11-25T09:24:01;1.88;;;1.77;;
46875;SDS011;32866;50.160;14.768;2023-11-25T09:26:27;1.50;;;1.50;;
46875;SDS011;32866;50.160;14.768;2023-11-25T09:28:53;1.92;;;1.85;;
46875;SDS011;32866;50.160;14.768;2023-11-25T09:31:20;1.90;;;1.90;;
46875;SDS011;32866;50.160;14.768;2023-11-25T09:33:47;2.00;;;1.93;;
46875;SDS011;32866;50.160;14.768;2023-11-25T09:36:13;1.57;;;1.57;;
46875;SDS011;32866;50.160;14.768;2023-11-25T09:38:39;2.80;;;2.40;;
46875;SDS011;32866;50.160;14.768;2023-11-25T09:41:05;1.65;;;1.65;;
46875;SDS011;32866;50.160;14.768;2023-11-25T09:43:32;1.80;;;1.70;;
46875;SDS011;32866;50.160;14.768;2023-11-25T09:45:58;1.53;;;1.53;;
46875;SDS011;32866;50.160;14.768;2023-11-25T09:48:26;1.40;;;1.40;;
46875;SDS011;32866;50.160;14.768;2023-11-25T09:50:53;1.57;;;1.57;;
46875;SDS011;32866;50.160;14.768;2023-11-25T09:53:37;1.43;;;1.43;;
46875;SDS011;32866;50.160;14.768;2023-11-25T09:56:05;1.53;;;1.53;;
46875;SDS011;32866;50.160;14.768;2023-11-25T09:58:32;1.63;;;1.63;;
46875;SDS011;32866;50.160;14.768;2023-11-25T10:01:00;1.40;;;1.40;;
46875;SDS011;32866;50.160;14.768;2023-11-25T10:03:35;1.67;;;1.67;;
46875;SDS011;32866;50.160;14.768;2023-11-25T10:06:04;1.80;;;1.80;;
46875;SDS011;32866;50.160;14.768;2023-11-25T10:08:31;1.50;;;1.40;;
46875;SDS011;32866;50.160;14.768;2023-11-25T10:11:00;1.40;;;1.40;;
46875;SDS011;32866;50.160;14.768;2023-11-25T10:13:35;1.70;;;1.70;;
46875;SDS011;32866;50.160;14.768;2023-11-25T10:16:03;1.43;;;1.43;;
46875;SDS011;32866;50.160;14.768;2023-11-25T10:18:30;1.47;;;1.47;;
46875;SDS011;32866;50.160;14.768;2023-11-25T10:20:56;1.63;;;1.63;;
46875;SDS011;32866;50.160;14.768;2023-11-25T10:23:24;1.40;;;1.40;;
46875;SDS011;32866;50.160;14.768;2023-11-25T10:28:27;1.70;;;1.70;;
46875;SDS011;32866;50.160;14.768;2023-11-25T10:31:02;1.43;;;1.43;;
46875;SDS011;32866;50.160;14.768;2023-11-25T10:36:03;1.63;;;1.63;;
46875;SDS011;32866;50.160;14.768;2023-11-25T10:38:29;1.53;;;1.53;;
46875;SDS011;32866;50.160;14.768;2023-11-25T10:40:58;1.70;;;1.70;;
46875;SDS011;32866;50.160;14.768;2023-11-25T10:43:25;1.87;;;1.80;;
46875;SDS011;32866;50.160;14.768;2023-11-25T10:48:28;6.20;;;3.30;;
46875;SDS011;32866;50.160;14.768;2023-11-25T10:50:56;1.50;;;1.50;;
46875;SDS011;32866;50.160;14.768;2023-11-25T10:53:26;2.00;;;1.90;;
46875;SDS011;32866;50.160;14.768;2023-11-25T10:55:57;1.47;;;1.47;;
46875;SDS011;32866;50.160;14.768;2023-11-25T10:58:26;1.70;;;1.70;;
46875;SDS011;32866;50.160;14.768;2023-11-25T11:01:00;1.70;;;1.70;;
46875;SDS011;32866;50.160;14.768;2023-11-25T11:03:43;1.73;;;1.73;;
46875;SDS011;32866;50.160;14.768;2023-11-25T11:06:20;1.63;;;1.63;;
46875;SDS011;32866;50.160;14.768;2023-11-25T11:08:50;1.63;;;1.63;;
46875;SDS011;32866;50.160;14.768;2023-11-25T11:14:19;1.50;;;1.50;;
46875;SDS011;32866;50.160;14.768;2023-11-25T11:17:10;2.43;;;2.23;;
46875;SDS011;32866;50.160;14.768;2023-11-25T11:19:39;1.30;;;1.30;;
46875;SDS011;32866;50.160;14.768;2023-11-25T11:22:07;2.63;;;2.43;;
46875;SDS011;32866;50.160;14.768;2023-11-25T11:24:39;2.03;;;1.93;;
46875;SDS011;32866;50.160;14.768;2023-11-25T11:27:12;2.03;;;1.93;;
46875;SDS011;32866;50.160;14.768;2023-11-25T11:29:47;1.40;;;1.40;;
46875;SDS011;32866;50.160;14.768;2023-11-25T11:32:19;1.50;;;1.50;;
46875;SDS011;32866;50.160;14.768;2023-11-25T11:34:55;1.50;;;1.50;;
46875;SDS011;32866;50.160;14.768;2023-11-25T11:37:22;1.43;;;1.43;;
46875;SDS011;32866;50.160;14.768;2023-11-25T11:45:09;1.60;;;1.60;;
46875;SDS011;32866;50.160;14.768;2023-11-25T11:47:37;1.40;;;1.40;;
46875;SDS011;32866;50.160;14.768;2023-11-25T11:50:08;1.77;;;1.77;;
46875;SDS011;32866;50.160;14.768;2023-11-25T11:52:42;1.33;;;1.33;;
46875;SDS011;32866;50.160;14.768;2023-11-25T11:55:53;1.40;;;1.40;;
46875;SDS011;32866;50.160;14.768;2023-11-25T11:58:21;1.70;;;1.67;;
46875;SDS011;32866;50.160;14.768;2023-11-25T12:05:45;1.73;;;1.73;;
46875;SDS011;32866;50.160;14.768;2023-11-25T12:10:37;1.27;;;1.27;;
46875;SDS011;32866;50.160;14.768;2023-11-25T12:13:04;1.40;;;1.40;;
46875;SDS011;32866;50.160;14.768;2023-11-25T12:15:30;1.90;;;1.90;;
46875;SDS011;32866;50.160;14.768;2023-11-25T12:17:57;1.67;;;1.67;;
46875;SDS011;32866;50.160;14.768;2023-11-25T12:20:26;2.03;;;1.97;;
46875;SDS011;32866;50.160;14.768;2023-11-25T12:22:53;1.70;;;1.70;;
46875;SDS011;32866;50.160;14.768;2023-11-25T12:25:19;15.43;;;1.90;;
46875;SDS011;32866;50.160;14.768;2023-11-25T12:30:20;1.70;;;1.70;;
46875;SDS011;32866;50.160;14.768;2023-11-25T12:32:46;1.40;;;1.40;;
46875;SDS011;32866;50.160;14.768;2023-11-25T12:35:12;1.33;;;1.33;;
46875;SDS011;32866;50.160;14.768;2023-11-25T12:37:39;2.53;;;2.43;;
46875;SDS011;32866;50.160;14.768;2023-11-25T12:40:16;1.50;;;1.50;;
46875;SDS011;32866;50.160;14.768;2023-11-25T12:42:47;1.50;;;1.50;;
46875;SDS011;32866;50.160;14.768;2023-11-25T12:48:00;1.60;;;1.60;;
46875;SDS011;32866;50.160;14.768;2023-11-25T12:50:35;1.50;;;1.50;;
46875;SDS011;32866;50.160;14.768;2023-11-25T12:53:21;1.73;;;1.67;;
46875;SDS011;32866;50.160;14.768;2023-11-25T12:55:47;1.30;;;1.30;;
46875;SDS011;32866;50.160;14.768;2023-11-25T12:58:17;1.30;;;1.30;;
46875;SDS011;32866;50.160;14.768;2023-11-25T13:00:47;1.37;;;1.37;;
46875;SDS011;32866;50.160;14.768;2023-11-25T13:05:49;1.47;;;1.40;;
46875;SDS011;32866;50.160;14.768;2023-11-25T13:08:19;1.47;;;1.47;;
46875;SDS011;32866;50.160;14.768;2023-11-25T13:10:47;8.00;;;2.63;;
46875;SDS011;32866;50.160;14.768;2023-11-25T13:13:13;1.30;;;1.30;;
46875;SDS011;32866;50.160;14.768;2023-11-25T13:15:40;1.87;;;1.77;;
46875;SDS011;32866;50.160;14.768;2023-11-25T13:18:06;1.40;;;1.40;;
46875;SDS011;32866;50.160;14.768;2023-11-25T13:20:33;1.30;;;1.30;;
46875;SDS011;32866;50.160;14.768;2023-11-25T13:22:59;1.63;;;1.63;;
46875;SDS011;32866;50.160;14.768;2023-11-25T13:25:25;1.65;;;1.65;;
46875;SDS011;32866;50.160;14.768;2023-11-25T13:27:51;1.52;;;1.52;;
46875;SDS011;32866;50.160;14.768;2023-11-25T13:30:17;1.45;;;1.45;;
46875;SDS011;32866;50.160;14.768;2023-11-25T13:32:44;1.60;;;1.60;;
46875;SDS011;32866;50.160;14.768;2023-11-25T13:35:10;1.75;;;1.75;;
46875;SDS011;32866;50.160;14.768;2023-11-25T13:37:37;2.23;;;2.13;;
46875;SDS011;32866;50.160;14.768;2023-11-25T13:40:05;1.70;;;1.70;;
46875;SDS011;32866;50.160;14.768;2023-11-25T13:42:32;1.43;;;1.43;;
46875;SDS011;32866;50.160;14.768;2023-11-25T13:47:25;1.57;;;1.57;;
46875;SDS011;32866;50.160;14.768;2023-11-25T13:49:51;1.38;;;1.38;;
46875;SDS011;32866;50.160;14.768;2023-11-25T13:52:18;1.47;;;1.47;;
46875;SDS011;32866;50.160;14.768;2023-11-25T13:54:47;1.50;;;1.50;;
46875;SDS011;32866;50.160;14.768;2023-11-25T13:57:13;1.73;;;1.73;;
46875;SDS011;32866;50.160;14.768;2023-11-25T13:59:38;1.42;;;1.42;;
46875;SDS011;32866;50.160;14.768;2023-11-25T14:02:05;1.60;;;1.60;;
46875;SDS011;32866;50.160;14.768;2023-11-25T14:04:31;2.40;;;2.30;;
46875;SDS011;32866;50.160;14.768;2023-11-25T14:06:57;2.17;;;1.97;;
46875;SDS011;32866;50.160;14.768;2023-11-25T14:09:25;1.83;;;1.83;;
46875;SDS011;32866;50.160;14.768;2023-11-25T14:11:52;1.53;;;1.53;;
46875;SDS011;32866;50.160;14.768;2023-11-25T14:14:18;3.20;;;3.00;;
46875;SDS011;32866;50.160;14.768;2023-11-25T14:16:48;1.90;;;1.88;;
46875;SDS011;32866;50.160;14.768;2023-11-25T14:19:15;2.80;;;2.60;;
46875;SDS011;32866;50.160;14.768;2023-11-25T14:21:42;2.10;;;2.07;;
46875;SDS011;32866;50.160;14.768;2023-11-25T14:24:08;1.70;;;1.70;;
46875;SDS011;32866;50.160;14.768;2023-11-25T14:26:35;2.60;;;2.10;;
46875;SDS011;32866;50.160;14.768;2023-11-25T14:29:02;1.70;;;1.70;;
46875;SDS011;32866;50.160;14.768;2023-11-25T14:34:00;1.80;;;1.80;;
46875;SDS011;32866;50.160;14.768;2023-11-25T14:36:27;1.73;;;1.73;;
46875;SDS011;32866;50.160;14.768;2023-11-25T14:38:53;2.13;;;2.07;;
46875;SDS011;32866;50.160;14.768;2023-11-25T14:41:22;2.00;;;2.00;;
46875;SDS011;32866;50.160;14.768;2023-11-25T14:43:49;1.90;;;1.90;;
46875;SDS011;32866;50.160;14.768;2023-11-25T14:46:16;1.77;;;1.77;;
46875;SDS011;32866;50.160;14.768;2023-11-25T14:48:43;1.87;;;1.87;;
46875;SDS011;32866;50.160;14.768;2023-11-25T14:51:10;2.43;;;2.33;;
46875;SDS011;32866;50.160;14.768;2023-11-25T14:53:36;2.43;;;2.33;;
46875;SDS011;32866;50.160;14.768;2023-11-25T14:56:06;2.10;;;2.00;;
46875;SDS011;32866;50.160;14.768;2023-11-25T14:58:32;2.27;;;2.17;;
46875;SDS011;32866;50.160;14.768;2023-11-25T15:00:59;3.83;;;3.53;;
46875;SDS011;32866;50.160;14.768;2023-11-25T15:03:25;2.97;;;2.87;;
46875;SDS011;32866;50.160;14.768;2023-11-25T15:05:54;3.13;;;3.03;;
46875;SDS011;32866;50.160;14.768;2023-11-25T15:08:20;2.67;;;2.58;;
46875;SDS011;32866;50.160;14.768;2023-11-25T15:10:46;4.57;;;4.28;;
46875;SDS011;32866;50.160;14.768;2023-11-25T15:13:13;3.27;;;3.17;;
46875;SDS011;32866;50.160;14.768;2023-11-25T15:15:40;2.97;;;2.87;;
46875;SDS011;32866;50.160;14.768;2023-11-25T15:18:06;3.90;;;3.65;;
46875;SDS011;32866;50.160;14.768;2023-11-25T15:20:33;4.07;;;3.83;;
46875;SDS011;32866;50.160;14.768;2023-11-25T15:22:59;4.30;;;4.00;;
46875;SDS011;32866;50.160;14.768;2023-11-25T15:25:29;4.40;;;4.20;;
46875;SDS011;32866;50.160;14.768;2023-11-25T15:27:57;4.43;;;4.23;;
46875;SDS011;32866;50.160;14.768;2023-11-25T15:30:23;4.35;;;4.18;;
46875;SDS011;32866;50.160;14.768;2023-11-25T15:32:50;5.10;;;4.90;;
46875;SDS011;32866;50.160;14.768;2023-11-25T15:35:17;4.63;;;4.43;;
46875;SDS011;32866;50.160;14.768;2023-11-25T15:37:43;5.85;;;5.45;;
46875;SDS011;32866;50.160;14.768;2023-11-25T15:40:12;5.70;;;5.50;;
46875;SDS011;32866;50.160;14.768;2023-11-25T15:42:43;5.77;;;5.50;;